createdAt,value
2018-11-04T00:00:06.330Z,97.88
2018-11-04T00:01:06.324Z,97.88
2018-11-04T00:02:06.330Z,97.56
2018-11-04T00:03:06.301Z,98.19
2018-11-04T00:04:06.310Z,97.52
2018-11-04T00:05:06.307Z,97.67
2018-11-04T00:06:06.276Z,97.52
2018-11-04T00:07:06.265Z,97.62
2018-11-04T00:08:06.268Z,97.62
2018-11-04T00:09:06.237Z,97.62
2018-11-04T00:10:06.250Z,97.83
2018-11-04T00:11:06.240Z,97.93
2018-11-04T00:12:06.205Z,98.24
2018-11-04T00:13:06.205Z,98.14
2018-11-04T00:14:06.169Z,98.20
2018-11-04T00:15:06.182Z,98.10
2018-11-04T00:16:06.167Z,98.14
2018-11-04T00:17:06.128Z,97.89
2018-11-04T00:18:06.178Z,97.47
2018-11-04T00:19:06.155Z,97.41
2018-11-04T00:20:06.171Z,97.47
2018-11-04T00:21:06.097Z,97.31
2018-11-04T00:22:06.087Z,97.31
2018-11-04T00:23:06.079Z,96.85
2018-11-04T00:24:06.082Z,97.16
2018-11-04T00:25:06.076Z,96.85
2018-11-04T00:26:06.048Z,96.44
2018-11-04T00:27:06.065Z,96.54
2018-11-04T00:28:06.048Z,96.75
2018-11-04T00:29:06.005Z,96.75
2018-11-04T00:30:06.033Z,96.85
2018-11-04T00:31:05.992Z,96.64
2018-11-04T00:32:05.981Z,97.06
2018-11-04T00:33:05.993Z,96.81
2018-11-04T00:34:05.953Z,97.02
2018-11-04T00:35:05.965Z,96.60
2018-11-04T00:36:05.941Z,96.60
2018-11-04T00:37:05.926Z,96.60
2018-11-04T00:38:05.922Z,96.85
2018-11-04T00:39:05.895Z,96.81
2018-11-04T00:40:05.891Z,96.81
2018-11-04T00:41:05.872Z,96.60
2018-11-04T00:42:05.884Z,96.91
2018-11-04T00:43:05.851Z,96.60
2018-11-04T00:44:05.846Z,96.08
2018-11-04T00:45:05.891Z,95.93
2018-11-04T00:46:05.817Z,96.24
2018-11-04T00:47:05.821Z,96.03
2018-11-04T00:48:05.803Z,96.03
2018-11-04T00:49:05.780Z,96.03
2018-11-04T00:50:05.795Z,96.14
2018-11-04T00:51:05.759Z,96.03
2018-11-04T00:52:05.750Z,96.86
2018-11-04T00:53:05.736Z,95.93
2018-11-04T00:54:05.726Z,95.83
2018-11-04T00:55:05.732Z,96.34
2018-11-04T00:56:05.715Z,95.51
2018-11-04T00:57:05.693Z,95.68
2018-11-04T00:58:05.687Z,95.37
2018-11-04T00:59:05.705Z,95.68
2018-11-04T01:00:05.663Z,95.57
2018-11-04T01:01:05.658Z,95.37
2018-11-04T01:02:05.649Z,95.68
2018-11-04T01:03:05.630Z,95.37
2018-11-04T01:04:05.668Z,95.47
2018-11-04T01:05:05.598Z,95.47
2018-11-04T01:06:05.616Z,95.37
2018-11-04T01:07:05.614Z,95.47
2018-11-04T01:08:05.569Z,95.53
2018-11-04T01:09:05.623Z,95.32
2018-11-04T01:10:05.572Z,95.37
2018-11-04T01:11:05.557Z,95.57
2018-11-04T01:12:05.552Z,95.26
2018-11-04T01:13:05.523Z,95.84
2018-11-04T01:14:05.502Z,95.43
2018-11-04T01:15:05.525Z,95.78
2018-11-04T01:16:05.484Z,95.22
2018-11-04T01:17:05.499Z,95.47
2018-11-04T01:18:05.461Z,94.81
2018-11-04T01:19:05.481Z,94.39
2018-11-04T01:20:05.434Z,94.60
2018-11-04T01:21:05.436Z,94.60
2018-11-04T01:22:05.411Z,94.60
2018-11-04T01:23:05.402Z,94.49
2018-11-04T01:24:05.402Z,94.91
2018-11-04T01:25:05.375Z,94.70
2018-11-04T01:26:05.370Z,95.43
2018-11-04T01:27:05.407Z,95.64
2018-11-04T01:28:05.353Z,95.64
2018-11-04T01:29:05.376Z,95.43
2018-11-04T01:30:05.388Z,95.12
2018-11-04T01:31:05.351Z,95.32
2018-11-04T01:32:05.309Z,95.43
2018-11-04T01:33:05.290Z,95.53
2018-11-04T01:34:05.305Z,95.39
2018-11-04T01:35:05.296Z,95.43
2018-11-04T01:36:05.262Z,95.64
2018-11-04T01:37:05.248Z,95.70
2018-11-04T01:38:05.232Z,94.56
2018-11-04T01:39:05.253Z,94.39
2018-11-04T01:40:05.214Z,94.35
2018-11-04T01:41:05.210Z,94.70
2018-11-04T01:42:05.220Z,95.01
2018-11-04T01:43:05.213Z,94.60
2018-11-04T01:44:05.166Z,94.45
2018-11-04T01:45:05.157Z,94.08
2018-11-04T01:46:05.143Z,94.39
2018-11-04T01:47:05.154Z,94.24
2018-11-04T01:48:05.142Z,94.14
2018-11-04T01:49:05.110Z,93.83
2018-11-04T01:50:05.098Z,93.93
2018-11-04T01:51:05.097Z,94.04
2018-11-04T01:52:05.111Z,94.04
2018-11-04T01:53:05.069Z,94.04
2018-11-04T01:54:05.084Z,94.45
2018-11-04T01:55:05.028Z,93.83
2018-11-04T01:56:05.040Z,94.24
2018-11-04T01:57:05.026Z,93.83
2018-11-04T01:58:05.040Z,93.52
2018-11-04T01:59:05.011Z,93.83
2018-11-04T02:00:05.013Z,93.83
2018-11-04T02:01:05.028Z,93.93
2018-11-04T02:02:04.990Z,93.41
2018-11-04T02:03:04.951Z,94.04
2018-11-04T02:04:04.944Z,93.21
2018-11-04T02:05:04.960Z,94.14
2018-11-04T02:06:04.918Z,93.93
2018-11-04T02:07:04.920Z,94.35
2018-11-04T02:08:04.905Z,93.62
2018-11-04T02:09:04.915Z,93.73
2018-11-04T02:10:04.888Z,93.41
2018-11-04T02:11:04.861Z,93.52
2018-11-04T02:12:04.857Z,93.62
2018-11-04T02:13:04.848Z,93.41
2018-11-04T02:14:04.855Z,93.62
2018-11-04T02:15:04.830Z,93.73
2018-11-04T02:16:04.819Z,93.93
2018-11-04T02:17:04.817Z,94.24
2018-11-04T02:18:04.808Z,93.73
2018-11-04T02:19:04.805Z,93.93
2018-11-04T02:20:04.758Z,93.93
2018-11-04T02:21:04.751Z,93.62
2018-11-04T02:22:04.763Z,93.93
2018-11-04T02:23:04.757Z,93.83
2018-11-04T02:24:04.734Z,93.62
2018-11-04T02:25:04.704Z,93.93
2018-11-04T02:26:04.815Z,94.35
2018-11-04T02:27:04.695Z,93.93
2018-11-04T02:28:04.664Z,93.99
2018-11-04T02:29:04.670Z,93.62
2018-11-04T02:30:04.667Z,93.52
2018-11-04T02:31:04.668Z,93.21
2018-11-04T02:32:04.668Z,93.52
2018-11-04T02:33:04.627Z,93.62
2018-11-04T02:34:04.601Z,93.52
2018-11-04T02:35:04.594Z,93.41
2018-11-04T02:36:04.591Z,93.62
2018-11-04T02:37:04.591Z,94.24
2018-11-04T02:38:04.556Z,93.62
2018-11-04T02:39:04.585Z,93.93
2018-11-04T02:40:04.566Z,93.93
2018-11-04T02:41:04.528Z,93.73
2018-11-04T02:42:04.510Z,93.83
2018-11-04T02:43:04.503Z,93.73
2018-11-04T02:44:04.525Z,93.41
2018-11-04T02:45:04.489Z,93.21
2018-11-04T02:46:04.494Z,93.21
2018-11-04T02:47:04.479Z,93.41
2018-11-04T02:48:04.451Z,93.62
2018-11-04T02:49:04.435Z,93.41
2018-11-04T02:50:04.428Z,93.73
2018-11-04T02:51:04.440Z,93.21
2018-11-04T02:52:04.407Z,93.10
2018-11-04T02:53:04.384Z,93.48
2018-11-04T02:54:04.389Z,93.68
2018-11-04T02:55:04.367Z,93.48
2018-11-04T02:56:04.378Z,93.89
2018-11-04T02:57:04.337Z,94.24
2018-11-04T02:58:04.374Z,93.52
2018-11-04T02:59:04.335Z,93.93
2018-11-04T03:00:04.317Z,93.41
2018-11-04T03:01:04.347Z,93.31
2018-11-04T03:02:04.342Z,93.37
2018-11-04T03:03:04.316Z,93.58
2018-11-04T03:04:04.271Z,93.68
2018-11-04T03:05:04.251Z,93.58
2018-11-04T03:06:04.270Z,93.68
2018-11-04T03:07:04.234Z,93.99
2018-11-04T03:08:04.251Z,94.10
2018-11-04T03:09:04.208Z,94.20
2018-11-04T03:10:04.208Z,93.79
2018-11-04T03:11:04.245Z,93.68
2018-11-04T03:12:04.191Z,93.68
2018-11-04T03:13:04.206Z,93.68
2018-11-04T03:14:04.223Z,93.89
2018-11-04T03:15:04.180Z,93.58
2018-11-04T03:16:04.140Z,93.06
2018-11-04T03:17:04.173Z,93.48
2018-11-04T03:18:04.110Z,93.37
2018-11-04T03:19:04.123Z,93.48
2018-11-04T03:20:04.081Z,93.58
2018-11-04T03:21:04.090Z,93.16
2018-11-04T03:22:04.062Z,93.27
2018-11-04T03:23:04.062Z,93.37
2018-11-04T03:24:04.076Z,93.68
2018-11-04T03:25:04.037Z,93.58
2018-11-04T03:26:04.012Z,94.20
2018-11-04T03:27:04.016Z,94.16
2018-11-04T03:28:04.027Z,94.20
2018-11-04T03:29:04.036Z,93.89
2018-11-04T03:30:03.998Z,93.89
2018-11-04T03:31:03.994Z,93.99
2018-11-04T03:32:03.954Z,94.16
2018-11-04T03:33:03.997Z,93.85
2018-11-04T03:34:03.998Z,94.06
2018-11-04T03:35:03.946Z,93.95
2018-11-04T03:36:03.926Z,93.85
2018-11-04T03:37:03.926Z,94.06
2018-11-04T03:38:03.887Z,94.16
2018-11-04T03:39:04.046Z,93.33
2018-11-04T03:40:03.865Z,93.74
2018-11-04T03:41:03.855Z,93.85
2018-11-04T03:42:03.858Z,93.85
2018-11-04T03:43:03.822Z,93.54
2018-11-04T03:44:03.813Z,93.64
2018-11-04T03:45:03.837Z,93.43
2018-11-04T03:46:03.851Z,93.74
2018-11-04T03:47:03.800Z,93.43
2018-11-04T03:48:03.783Z,93.80
2018-11-04T03:49:03.759Z,93.85
2018-11-04T03:50:03.759Z,93.80
2018-11-04T03:51:03.739Z,93.60
2018-11-04T03:52:03.747Z,93.49
2018-11-04T03:53:03.721Z,93.49
2018-11-04T03:54:03.713Z,93.33
2018-11-04T03:55:03.694Z,94.01
2018-11-04T03:56:03.707Z,93.80
2018-11-04T03:57:03.678Z,93.70
2018-11-04T03:58:03.662Z,93.49
2018-11-04T03:59:03.656Z,93.80
2018-11-04T04:00:03.657Z,93.80
2018-11-04T04:01:03.663Z,93.70
2018-11-04T04:02:03.620Z,94.12
2018-11-04T04:03:03.610Z,93.70
2018-11-04T04:04:03.599Z,94.12
2018-11-04T04:05:03.595Z,93.60
2018-11-04T04:06:03.604Z,93.08
2018-11-04T04:07:03.563Z,93.39
2018-11-04T04:08:03.545Z,93.60
2018-11-04T04:09:03.534Z,93.60
2018-11-04T04:10:03.559Z,93.08
2018-11-04T04:11:03.540Z,93.29
2018-11-04T04:12:03.502Z,93.18
2018-11-04T04:13:03.485Z,93.18
2018-11-04T04:14:03.475Z,93.29
2018-11-04T04:15:03.475Z,93.24
2018-11-04T04:16:03.488Z,93.14
2018-11-04T04:17:03.456Z,93.24
2018-11-04T04:18:03.447Z,93.04
2018-11-04T04:19:03.421Z,93.29
2018-11-04T04:20:03.428Z,93.04
2018-11-04T04:21:03.443Z,93.35
2018-11-04T04:22:03.395Z,92.52
2018-11-04T04:23:03.392Z,92.93
2018-11-04T04:24:03.363Z,92.83
2018-11-04T04:25:03.356Z,93.04
2018-11-04T04:26:03.363Z,92.83
2018-11-04T04:27:03.334Z,93.55
2018-11-04T04:28:03.336Z,92.93
2018-11-04T04:29:03.308Z,93.45
2018-11-04T04:30:03.336Z,93.24
2018-11-04T04:31:03.285Z,93.04
2018-11-04T04:32:03.303Z,93.24
2018-11-04T04:33:03.272Z,94.18
2018-11-04T04:34:03.270Z,93.55
2018-11-04T04:35:03.237Z,94.07
2018-11-04T04:36:03.237Z,93.45
2018-11-04T04:37:03.290Z,93.35
2018-11-04T04:38:03.242Z,93.55
2018-11-04T04:39:03.202Z,94.07
2018-11-04T04:40:03.201Z,93.24
2018-11-04T04:41:03.217Z,93.45
2018-11-04T04:42:03.188Z,93.35
2018-11-04T04:43:03.165Z,93.45
2018-11-04T04:44:03.149Z,93.35
2018-11-04T04:45:03.157Z,93.04
2018-11-04T04:46:03.135Z,93.35
2018-11-04T04:47:03.111Z,93.04
2018-11-04T04:48:03.114Z,92.93
2018-11-04T04:49:03.094Z,93.55
2018-11-04T04:50:03.114Z,93.14
2018-11-04T04:51:03.074Z,93.45
2018-11-04T04:52:03.119Z,93.45
2018-11-04T04:53:03.029Z,93.35
2018-11-04T04:54:03.035Z,93.45
2018-11-04T04:55:03.056Z,93.14
2018-11-04T04:56:03.011Z,93.24
2018-11-04T04:57:03.019Z,93.10
2018-11-04T04:58:03.027Z,93.24
2018-11-04T04:59:02.977Z,93.24
2018-11-04T05:00:02.967Z,93.55
2018-11-04T05:01:02.962Z,93.51
2018-11-04T05:02:02.981Z,93.72
2018-11-04T05:03:02.940Z,93.93
2018-11-04T05:04:02.952Z,93.82
2018-11-04T05:05:02.904Z,93.55
2018-11-04T05:06:02.925Z,93.87
2018-11-04T05:07:02.899Z,93.55
2018-11-04T05:08:02.891Z,93.51
2018-11-04T05:09:02.852Z,93.55
2018-11-04T05:10:02.856Z,93.51
2018-11-04T05:11:02.893Z,93.30
2018-11-04T05:12:02.841Z,93.51
2018-11-04T05:13:02.819Z,93.87
2018-11-04T05:14:02.818Z,93.72
2018-11-04T05:15:02.813Z,94.03
2018-11-04T05:16:02.816Z,93.30
2018-11-04T05:17:02.777Z,93.82
2018-11-04T05:18:02.759Z,93.41
2018-11-04T05:19:02.761Z,93.45
2018-11-04T05:20:02.758Z,93.51
2018-11-04T05:21:02.754Z,93.62
2018-11-04T05:22:02.756Z,93.72
2018-11-04T05:23:02.707Z,93.51
2018-11-04T05:24:02.690Z,93.62
2018-11-04T05:25:02.692Z,93.51
2018-11-04T05:26:02.703Z,93.51
2018-11-04T05:27:02.654Z,93.72
2018-11-04T05:28:02.652Z,93.30
2018-11-04T05:29:02.641Z,93.10
2018-11-04T05:30:02.660Z,92.99
2018-11-04T05:31:02.617Z,93.26
2018-11-04T05:32:02.631Z,92.99
2018-11-04T05:33:02.624Z,93.30
2018-11-04T05:34:02.582Z,92.89
2018-11-04T05:35:02.586Z,93.10
2018-11-04T05:36:02.567Z,93.20
2018-11-04T05:37:02.578Z,93.51
2018-11-04T05:38:02.537Z,93.72
2018-11-04T05:39:02.578Z,93.51
2018-11-04T05:40:02.517Z,93.10
2018-11-04T05:41:02.500Z,93.26
2018-11-04T05:42:02.491Z,93.68
2018-11-04T05:43:02.470Z,93.78
2018-11-04T05:44:02.504Z,93.51
2018-11-04T05:45:02.472Z,93.68
2018-11-04T05:46:02.450Z,93.68
2018-11-04T05:47:02.467Z,93.68
2018-11-04T05:48:02.456Z,93.47
2018-11-04T05:49:02.425Z,93.47
2018-11-04T05:50:02.414Z,93.37
2018-11-04T05:51:02.398Z,93.88
2018-11-04T05:52:02.388Z,93.98
2018-11-04T05:53:02.412Z,93.37
2018-11-04T05:54:02.388Z,94.19
2018-11-04T05:55:02.341Z,93.78
2018-11-04T05:56:02.337Z,93.78
2018-11-04T05:57:02.349Z,93.68
2018-11-04T05:58:02.320Z,93.78
2018-11-04T05:59:02.303Z,93.16
2018-11-04T06:00:02.333Z,93.16
2018-11-04T06:01:02.274Z,93.68
2018-11-04T06:02:02.285Z,93.57
2018-11-04T06:03:02.271Z,94.09
2018-11-04T06:04:02.285Z,92.70
2018-11-04T06:05:02.240Z,93.26
2018-11-04T06:06:02.228Z,93.63
2018-11-04T06:07:02.216Z,93.78
2018-11-04T06:08:02.215Z,92.91
2018-11-04T06:09:02.230Z,93.22
2018-11-04T06:10:02.193Z,92.95
2018-11-04T06:11:02.183Z,93.78
2018-11-04T06:12:02.169Z,93.12
2018-11-04T06:13:02.155Z,93.12
2018-11-04T06:14:02.126Z,93.12
2018-11-04T06:15:02.135Z,93.53
2018-11-04T06:16:02.112Z,93.22
2018-11-04T06:17:02.145Z,92.91
2018-11-04T06:18:02.082Z,93.94
2018-11-04T06:19:02.096Z,93.73
2018-11-04T06:20:02.079Z,93.01
2018-11-04T06:21:02.055Z,93.01
2018-11-04T06:22:02.070Z,92.91
2018-11-04T06:23:02.044Z,93.22
2018-11-04T06:24:02.027Z,93.01
2018-11-04T06:25:02.049Z,93.22
2018-11-04T06:26:02.038Z,92.91
2018-11-04T06:27:01.972Z,93.01
2018-11-04T06:28:02.011Z,92.80
2018-11-04T06:29:01.974Z,93.43
2018-11-04T06:30:01.964Z,93.43
2018-11-04T06:31:01.962Z,93.63
2018-11-04T06:32:01.935Z,93.53
2018-11-04T06:33:01.942Z,93.63
2018-11-04T06:34:01.908Z,93.38
2018-11-04T06:35:01.900Z,93.32
2018-11-04T06:36:01.924Z,93.84
2018-11-04T06:37:01.903Z,93.12
2018-11-04T06:38:01.872Z,93.69
2018-11-04T06:39:01.876Z,93.90
2018-11-04T06:40:01.854Z,93.90
2018-11-04T06:41:01.856Z,93.38
2018-11-04T06:42:01.882Z,93.90
2018-11-04T06:43:01.824Z,93.38
2018-11-04T06:44:01.821Z,93.90
2018-11-04T06:45:01.787Z,93.90
2018-11-04T06:46:01.803Z,93.59
2018-11-04T06:47:01.856Z,93.07
2018-11-04T06:48:01.787Z,93.28
2018-11-04T06:49:01.770Z,93.03
2018-11-04T06:50:01.725Z,93.59
2018-11-04T06:51:01.732Z,93.59
2018-11-04T06:52:01.736Z,93.34
2018-11-04T06:53:01.699Z,93.38
2018-11-04T06:54:01.695Z,93.49
2018-11-04T06:55:01.673Z,93.34
2018-11-04T06:56:01.653Z,93.69
2018-11-04T06:57:01.677Z,93.59
2018-11-04T06:58:01.641Z,93.34
2018-11-04T06:59:01.627Z,93.38
2018-11-04T07:00:01.697Z,92.82
2018-11-04T07:01:01.644Z,93.54
2018-11-04T07:02:01.626Z,93.34
2018-11-04T07:03:01.616Z,93.75
2018-11-04T07:04:01.575Z,93.75
2018-11-04T07:05:01.567Z,93.54
2018-11-04T07:06:01.552Z,93.65
2018-11-04T07:07:01.529Z,93.44
2018-11-04T07:08:01.548Z,93.24
2018-11-04T07:09:01.633Z,93.75
2018-11-04T07:10:01.504Z,93.91
2018-11-04T07:11:01.507Z,93.40
2018-11-04T07:12:01.764Z,93.09
2018-11-04T07:13:01.485Z,92.99
2018-11-04T07:14:01.460Z,93.71
2018-11-04T07:15:01.468Z,93.09
2018-11-04T07:16:01.443Z,92.88
2018-11-04T07:17:01.456Z,93.40
2018-11-04T07:18:01.416Z,93.30
2018-11-04T07:19:01.401Z,92.99
2018-11-04T07:20:01.443Z,92.99
2018-11-04T07:21:01.433Z,93.05
2018-11-04T07:22:01.384Z,93.35
2018-11-04T07:23:01.349Z,92.84
2018-11-04T07:24:01.339Z,93.05
2018-11-04T07:25:01.359Z,93.25
2018-11-04T07:26:01.334Z,93.25
2018-11-04T07:27:01.318Z,92.63
2018-11-04T07:28:01.318Z,92.08
2018-11-04T07:29:01.326Z,93.31
2018-11-04T07:30:01.301Z,93.11
2018-11-04T07:31:01.274Z,93.21
2018-11-04T07:32:01.321Z,92.69
2018-11-04T07:33:01.250Z,93.21
2018-11-04T07:34:01.234Z,93.31
2018-11-04T07:35:01.278Z,92.90
2018-11-04T07:36:01.217Z,93.48
2018-11-04T07:37:01.226Z,94.05
2018-11-04T07:38:01.208Z,94.87
2018-11-04T07:39:01.191Z,94.56
2018-11-04T07:40:01.195Z,93.80
2018-11-04T07:41:01.153Z,94.42
2018-11-04T07:42:01.152Z,94.01
2018-11-04T07:43:01.143Z,93.90
2018-11-04T07:44:01.155Z,93.80
2018-11-04T07:45:01.150Z,93.39
2018-11-04T07:46:01.138Z,93.04
2018-11-04T07:47:01.095Z,93.04
2018-11-04T07:48:01.090Z,92.73
2018-11-04T07:49:01.136Z,92.87
2018-11-04T07:50:01.059Z,93.04
2018-11-04T07:51:01.058Z,92.63
2018-11-04T07:52:01.099Z,92.52
2018-11-04T07:53:01.023Z,92.83
2018-11-04T07:54:01.034Z,92.83
2018-11-04T07:55:01.006Z,92.52
2018-11-04T07:56:01.024Z,92.73
2018-11-04T07:57:01.137Z,92.83
2018-11-04T07:58:00.995Z,92.99
2018-11-04T07:59:00.990Z,91.76
2018-11-04T08:00:00.977Z,91.97
2018-11-04T08:01:00.987Z,92.44
2018-11-04T08:02:00.921Z,91.72
2018-11-04T08:03:00.925Z,91.93
2018-11-04T08:04:00.934Z,91.82
2018-11-04T08:05:00.880Z,91.57
2018-11-04T08:06:00.899Z,91.37
2018-11-04T08:07:00.885Z,91.61
2018-11-04T08:08:00.858Z,91.16
2018-11-04T08:09:01.015Z,91.27
2018-11-04T08:10:00.868Z,91.47
2018-11-04T08:11:00.819Z,91.57
2018-11-04T08:12:00.816Z,90.95
2018-11-04T08:13:00.800Z,91.22
2018-11-04T08:14:00.786Z,91.22
2018-11-04T08:15:00.779Z,90.71
2018-11-04T08:16:00.786Z,90.40
2018-11-04T08:17:00.759Z,90.09
2018-11-04T08:18:00.755Z,90.46
2018-11-04T08:19:00.736Z,90.09
2018-11-04T08:20:00.738Z,90.30
2018-11-04T08:21:00.720Z,89.78
2018-11-04T08:22:00.719Z,89.43
2018-11-04T08:23:00.703Z,88.92
2018-11-04T08:24:00.685Z,90.05
2018-11-04T08:25:00.668Z,88.62
2018-11-04T08:26:00.655Z,88.82
2018-11-04T08:27:00.634Z,88.17
2018-11-04T08:28:00.658Z,88.27
2018-11-04T08:29:00.622Z,87.79
2018-11-04T08:30:00.624Z,87.85
2018-11-04T08:31:00.614Z,88.57
2018-11-04T08:32:00.582Z,88.57
2018-11-04T08:33:00.562Z,87.65
2018-11-04T08:34:00.606Z,86.69
2018-11-04T08:35:00.671Z,87.24
2018-11-04T08:36:00.539Z,86.52
2018-11-04T08:37:00.528Z,86.42
2018-11-04T08:38:00.555Z,86.73
2018-11-04T08:39:00.515Z,86.93
2018-11-04T08:40:00.546Z,86.99
2018-11-04T08:41:00.504Z,86.28
2018-11-04T08:42:00.497Z,86.69
2018-11-04T08:43:00.483Z,86.65
2018-11-04T08:44:00.470Z,86.07
2018-11-04T08:45:00.435Z,86.38
2018-11-04T08:46:00.420Z,86.18
2018-11-04T08:47:00.435Z,86.18
2018-11-04T08:48:00.401Z,85.52
2018-11-04T08:49:00.419Z,85.72
2018-11-04T08:50:00.388Z,85.52
2018-11-04T08:51:00.368Z,84.91
2018-11-04T08:52:00.366Z,84.80
2018-11-04T08:53:00.350Z,85.31
2018-11-04T08:54:00.376Z,84.80
2018-11-04T08:55:00.356Z,85.31
2018-11-04T08:56:00.316Z,85.11
2018-11-04T08:57:00.288Z,84.91
2018-11-04T08:58:00.309Z,85.42
2018-11-04T08:59:00.279Z,85.38
2018-11-04T09:00:00.333Z,85.52
2018-11-04T09:01:00.263Z,84.66
2018-11-04T09:02:00.269Z,84.70
2018-11-04T09:03:00.229Z,85.01
2018-11-04T09:04:00.261Z,84.97
2018-11-04T09:05:00.216Z,85.89
2018-11-04T09:06:00.205Z,85.89
2018-11-04T09:07:00.193Z,86.10
2018-11-04T09:08:00.178Z,85.28
2018-11-04T09:09:00.208Z,84.87
2018-11-04T09:10:00.175Z,84.87
2018-11-04T09:11:00.226Z,85.17
2018-11-04T09:12:00.166Z,84.87
2018-11-04T09:13:00.134Z,84.97
2018-11-04T09:14:00.128Z,84.77
2018-11-04T09:15:00.129Z,85.14
2018-11-04T09:16:00.131Z,84.83
2018-11-04T09:17:00.115Z,84.01
2018-11-04T09:18:00.069Z,83.60
2018-11-04T09:19:00.098Z,83.50
2018-11-04T09:20:00.047Z,83.81
2018-11-04T09:21:00.047Z,84.17
2018-11-04T09:22:00.215Z,82.89
2018-11-04T09:23:00.021Z,82.98
2018-11-04T09:24:00.023Z,82.68
2018-11-04T09:24:59.985Z,82.84
2018-11-04T09:25:59.977Z,82.43
2018-11-04T09:26:59.952Z,82.34
2018-11-04T09:27:59.952Z,82.64
2018-11-04T09:29:00.108Z,82.23
2018-11-04T09:29:59.938Z,82.75
2018-11-04T09:30:59.915Z,82.34
2018-11-04T09:31:59.916Z,81.51
2018-11-04T09:32:59.918Z,81.48
2018-11-04T09:33:59.888Z,81.48
2018-11-04T09:35:00.106Z,81.48
2018-11-04T09:35:59.986Z,81.17
2018-11-04T09:36:59.865Z,81.27
2018-11-04T09:37:59.862Z,81.21
2018-11-04T09:38:59.858Z,82.09
2018-11-04T09:39:59.814Z,81.51
2018-11-04T09:40:59.833Z,82.40
2018-11-04T09:41:59.789Z,82.29
2018-11-04T09:42:59.781Z,82.20
2018-11-04T09:43:59.775Z,82.29
2018-11-04T09:44:59.807Z,81.68
2018-11-04T09:45:59.775Z,81.93
2018-11-04T09:46:59.735Z,82.43
2018-11-04T09:47:59.726Z,82.70
2018-11-04T09:48:59.734Z,82.40
2018-11-04T09:49:59.884Z,82.60
2018-11-04T09:50:59.687Z,82.40
2018-11-04T09:51:59.680Z,82.40
2018-11-04T09:52:59.671Z,82.20
2018-11-04T09:53:59.661Z,82.46
2018-11-04T09:54:59.670Z,82.46
2018-11-04T09:55:59.663Z,81.44
2018-11-04T09:56:59.628Z,82.05
2018-11-04T09:57:59.684Z,81.40
2018-11-04T09:58:59.604Z,81.10
2018-11-04T09:59:59.593Z,81.16
2018-11-04T10:00:59.605Z,79.97
2018-11-04T10:01:59.560Z,80.69
2018-11-04T10:02:59.570Z,79.77
2018-11-04T10:03:59.645Z,80.28
2018-11-04T10:04:59.526Z,80.89
2018-11-04T10:05:59.638Z,79.97
2018-11-04T10:06:59.558Z,80.65
2018-11-04T10:07:59.483Z,79.36
2018-11-04T10:08:59.479Z,79.36
2018-11-04T10:09:59.490Z,79.57
2018-11-04T10:10:59.500Z,79.52
2018-11-04T10:11:59.466Z,79.16
2018-11-04T10:12:59.444Z,79.97
2018-11-04T10:13:59.432Z,80.14
2018-11-04T10:14:59.407Z,79.63
2018-11-04T10:15:59.476Z,80.18
2018-11-04T10:16:59.412Z,80.38
2018-11-04T10:17:59.454Z,80.48
2018-11-04T10:18:59.521Z,80.79
2018-11-04T10:19:59.668Z,80.28
2018-11-04T10:20:59.803Z,80.79
2018-11-04T10:21:59.338Z,80.34
2018-11-04T10:22:59.365Z,79.43
2018-11-04T10:23:59.356Z,79.90
2018-11-04T10:24:59.318Z,79.39
2018-11-04T10:25:59.297Z,79.08
2018-11-04T10:26:59.286Z,79.93
2018-11-04T10:27:59.278Z,80.10
2018-11-04T10:28:59.286Z,79.49
2018-11-04T10:29:59.245Z,79.08
2018-11-04T10:30:59.243Z,80.20
2018-11-04T10:31:59.255Z,79.59
2018-11-04T10:32:59.245Z,78.88
2018-11-04T10:33:59.213Z,78.81
2018-11-04T10:34:59.195Z,79.59
2018-11-04T10:35:59.198Z,80.10
2018-11-04T10:36:59.221Z,78.98
2018-11-04T10:37:59.164Z,79.80
2018-11-04T10:38:59.156Z,78.81
2018-11-04T10:39:59.167Z,79.22
2018-11-04T10:40:59.139Z,79.73
2018-11-04T10:41:59.121Z,79.52
2018-11-04T10:42:59.129Z,79.69
2018-11-04T10:43:59.093Z,79.90
2018-11-04T10:44:59.112Z,79.80
2018-11-04T10:45:59.070Z,79.28
2018-11-04T10:46:59.095Z,79.69
2018-11-04T10:47:59.061Z,79.69
2018-11-04T10:48:59.062Z,80.14
2018-11-04T10:49:59.048Z,80.10
2018-11-04T10:50:59.007Z,79.80
2018-11-04T10:51:59.004Z,79.90
2018-11-04T10:52:58.987Z,79.63
2018-11-04T10:53:59.014Z,79.69
2018-11-04T10:54:58.990Z,79.49
2018-11-04T10:55:58.950Z,79.49
2018-11-04T10:56:58.977Z,79.69
2018-11-04T10:57:58.960Z,79.69
2018-11-04T10:58:58.920Z,79.28
2018-11-04T10:59:58.909Z,79.32
2018-11-04T11:00:58.892Z,79.73
2018-11-04T11:01:58.927Z,80.34
2018-11-04T11:02:58.878Z,80.79
2018-11-04T11:03:58.857Z,80.69
2018-11-04T11:04:58.848Z,80.69
2018-11-04T11:05:58.875Z,80.69
2018-11-04T11:06:58.833Z,80.79
2018-11-04T11:07:58.830Z,80.48
2018-11-04T11:08:58.823Z,81.10
2018-11-04T11:09:58.821Z,80.07
2018-11-04T11:10:58.838Z,80.69
2018-11-04T11:11:58.787Z,80.99
2018-11-04T11:12:58.770Z,80.99
2018-11-04T11:13:58.752Z,80.79
2018-11-04T11:14:58.743Z,80.65
2018-11-04T11:15:58.756Z,80.41
2018-11-04T11:16:58.719Z,79.43
2018-11-04T11:17:58.780Z,79.18
2018-11-04T11:18:58.718Z,79.43
2018-11-04T11:19:58.709Z,79.90
2018-11-04T11:20:58.688Z,79.80
2018-11-04T11:21:58.661Z,79.93
2018-11-04T11:22:58.886Z,79.90
2018-11-04T11:23:58.642Z,79.63
2018-11-04T11:24:58.626Z,80.07
2018-11-04T11:25:58.622Z,79.66
2018-11-04T11:26:58.631Z,79.87
2018-11-04T11:27:58.596Z,80.07
2018-11-04T11:28:58.574Z,80.28
2018-11-04T11:29:58.663Z,80.83
2018-11-04T11:30:58.560Z,81.54
2018-11-04T11:31:58.552Z,81.24
2018-11-04T11:32:58.533Z,81.24
2018-11-04T11:33:58.541Z,80.73
2018-11-04T11:34:58.536Z,80.76
2018-11-04T11:35:58.500Z,81.24
2018-11-04T11:36:58.494Z,81.24
2018-11-04T11:37:58.696Z,81.58
2018-11-04T11:38:58.473Z,81.27
2018-11-04T11:39:58.456Z,82.09
2018-11-04T11:40:58.452Z,82.70
2018-11-04T11:41:58.468Z,82.43
2018-11-04T11:42:58.436Z,82.81
2018-11-04T11:43:58.421Z,82.29
2018-11-04T11:44:58.558Z,82.60
2018-11-04T11:45:58.389Z,81.99
2018-11-04T11:46:58.444Z,82.60
2018-11-04T11:47:58.373Z,81.58
2018-11-04T11:48:58.379Z,82.20
2018-11-04T11:49:58.345Z,82.46
2018-11-04T11:50:58.369Z,81.24
2018-11-04T11:51:58.321Z,80.76
2018-11-04T11:52:58.312Z,81.07
2018-11-04T11:53:58.298Z,81.48
2018-11-04T11:54:58.317Z,80.52
2018-11-04T11:55:58.278Z,80.62
2018-11-04T11:56:58.263Z,81.54
2018-11-04T11:57:58.279Z,80.73
2018-11-04T11:58:58.275Z,81.03
2018-11-04T11:59:58.236Z,80.87
2018-11-04T12:00:58.232Z,81.24
2018-11-04T12:01:58.215Z,80.83
2018-11-04T12:02:58.198Z,80.93
2018-11-04T12:03:58.218Z,80.11
2018-11-04T12:04:58.178Z,80.42
2018-11-04T12:05:58.175Z,80.32
2018-11-04T12:06:58.164Z,79.91
2018-11-04T12:07:58.131Z,80.32
2018-11-04T12:08:58.156Z,80.93
2018-11-04T12:09:58.124Z,79.91
2018-11-04T12:10:58.203Z,79.91
2018-11-04T12:11:58.111Z,79.84
2018-11-04T12:12:58.081Z,80.35
2018-11-04T12:13:58.078Z,80.62
2018-11-04T12:14:58.101Z,80.83
2018-11-04T12:15:58.090Z,80.11
2018-11-04T12:16:58.053Z,80.46
2018-11-04T12:17:58.160Z,80.32
2018-11-04T12:18:58.085Z,80.46
2018-11-04T12:19:58.002Z,80.66
2018-11-04T12:20:57.991Z,80.42
2018-11-04T12:21:57.988Z,80.11
2018-11-04T12:22:57.988Z,80.21
2018-11-04T12:23:57.970Z,79.74
2018-11-04T12:24:57.948Z,79.50
2018-11-04T12:25:57.939Z,80.32
2018-11-04T12:26:57.926Z,80.52
2018-11-04T12:27:57.938Z,80.11
2018-11-04T12:28:57.897Z,80.32
2018-11-04T12:29:57.891Z,80.25
2018-11-04T12:30:57.912Z,80.15
2018-11-04T12:31:57.876Z,80.35
2018-11-04T12:32:57.889Z,80.42
2018-11-04T12:33:57.848Z,80.42
2018-11-04T12:34:57.921Z,79.29
2018-11-04T12:35:57.822Z,79.70
2018-11-04T12:36:57.865Z,78.78
2018-11-04T12:37:57.805Z,79.70
2018-11-04T12:38:57.790Z,79.80
2018-11-04T12:39:57.788Z,79.74
2018-11-04T12:40:57.781Z,79.80
2018-11-04T12:41:57.783Z,79.09
2018-11-04T12:42:57.737Z,79.09
2018-11-04T12:43:57.736Z,78.68
2018-11-04T12:44:57.725Z,78.99
2018-11-04T12:45:57.720Z,78.99
2018-11-04T12:46:57.729Z,79.29
2018-11-04T12:47:57.682Z,78.44
2018-11-04T12:48:57.679Z,79.16
2018-11-04T12:49:57.690Z,78.95
2018-11-04T12:50:57.649Z,78.09
2018-11-04T12:51:57.676Z,77.93